Fostoria, Ohio
Current Conditions -  °F | °C
As of 4:53 PM on Sunday 25 Jan 2015 (Local Time) from KFDY Reporting Station
Light Snow Light Snow  
Wind Chill: 10°   Ceiling: 2000
Heat Index: 23°   Visibility: 0.75mi
Dew Point: 19°   Wind: 15mph
Humidity: 85%   Direction: 50°NE
Pressure: 29.81"   Gusts: NA
Location:  41.16°N, 83.41°W
Report Text: KFDY 252153Z AUTO 05013KT 3/4SM -SN BR FEW008 FEW012 OVC020 M05/M07 A2981 RMK AO2 PK WND 05028/2136 SLP099 P0000 T10501072
Loading
Personal Weather Stations






























Interactive Weather Map New forecast layout! Learn more

10-Day Weather Forecast

Advertisements
Track Severe Weather on mobile